sensor_id;sensor_type;location;lat;lon;timestamp;temperature;humidity
26595;DHT22;14238;49.496;8.154;2023-07-31T00:01:48;18.30;99.90
26595;DHT22;14238;49.496;8.154;2023-07-31T00:04:13;18.20;99.90
26595;DHT22;14238;49.496;8.154;2023-07-31T00:06:39;18.20;99.90
26595;DHT22;14238;49.496;8.154;2023-07-31T00:09:04;18.20;99.90
26595;DHT22;14238;49.496;8.154;2023-07-31T00:11:30;18.20;99.90
26595;DHT22;14238;49.496;8.154;2023-07-31T00:13:56;18.20;99.90
26595;DHT22;14238;49.496;8.154;2023-07-31T00:16:21;18.20;99.90
26595;DHT22;14238;49.496;8.154;2023-07-31T00:18:47;18.20;99.90
26595;DHT22;14238;49.496;8.154;2023-07-31T00:21:12;18.10;99.90
26595;DHT22;14238;49.496;8.154;2023-07-31T00:23:38;18.20;99.90
26595;DHT22;14238;49.496;8.154;2023-07-31T00:26:03;18.10;99.90
26595;DHT22;14238;49.496;8.154;2023-07-31T00:28:29;18.10;99.90
26595;DHT22;14238;49.496;8.154;2023-07-31T00:30:54;18.10;99.90
26595;DHT22;14238;49.496;8.154;2023-07-31T00:33:20;18.10;99.90
26595;DHT22;14238;49.496;8.154;2023-07-31T00:35:45;18.10;99.90
26595;DHT22;14238;49.496;8.154;2023-07-31T00:38:11;18.10;99.90
26595;DHT22;14238;49.496;8.154;2023-07-31T00:40:37;18.10;99.90
26595;DHT22;14238;49.496;8.154;2023-07-31T00:43:03;18.10;99.90
26595;DHT22;14238;49.496;8.154;2023-07-31T00:45:29;18.10;99.90
26595;DHT22;14238;49.496;8.154;2023-07-31T00:47:55;18.10;99.90
26595;DHT22;14238;49.496;8.154;2023-07-31T00:50:23;18.10;99.90
26595;DHT22;14238;49.496;8.154;2023-07-31T00:52:49;18.20;99.90
26595;DHT22;14238;49.496;8.154;2023-07-31T00:55:15;18.20;99.90
26595;DHT22;14238;49.496;8.154;2023-07-31T00:57:41;18.10;99.90
26595;DHT22;14238;49.496;8.154;2023-07-31T01:00:07;18.10;99.90
26595;DHT22;14238;49.496;8.154;2023-07-31T01:02:33;18.10;99.90
26595;DHT22;14238;49.496;8.154;2023-07-31T01:05:00;18.10;99.90
26595;DHT22;14238;49.496;8.154;2023-07-31T01:07:49;18.00;99.90
26595;DHT22;14238;49.496;8.154;2023-07-31T01:10:23;18.10;99.90
26595;DHT22;14238;49.496;8.154;2023-07-31T01:12:51;18.10;99.90
26595;DHT22;14238;49.496;8.154;2023-07-31T01:15:17;18.10;99.90
26595;DHT22;14238;49.496;8.154;2023-07-31T01:17:43;18.10;99.90
26595;DHT22;14238;49.496;8.154;2023-07-31T01:20:21;18.10;99.90
26595;DHT22;14238;49.496;8.154;2023-07-31T01:26:11;18.00;99.90
26595;DHT22;14238;49.496;8.154;2023-07-31T01:28:55;18.00;99.90
26595;DHT22;14238;49.496;8.154;2023-07-31T01:31:24;18.10;99.90
26595;DHT22;14238;49.496;8.154;2023-07-31T01:33:52;18.10;99.90
26595;DHT22;14238;49.496;8.154;2023-07-31T01:36:19;18.00;99.90
26595;DHT22;14238;49.496;8.154;2023-07-31T01:38:45;18.00;99.90
26595;DHT22;14238;49.496;8.154;2023-07-31T01:41:10;17.90;99.90
26595;DHT22;14238;49.496;8.154;2023-07-31T01:43:36;17.90;99.90
26595;DHT22;14238;49.496;8.154;2023-07-31T01:46:01;18.00;99.90
26595;DHT22;14238;49.496;8.154;2023-07-31T01:48:27;18.00;99.90
26595;DHT22;14238;49.496;8.154;2023-07-31T01:50:52;17.90;99.90
26595;DHT22;14238;49.496;8.154;2023-07-31T01:53:18;17.90;99.90
26595;DHT22;14238;49.496;8.154;2023-07-31T01:55:44;17.90;99.90
26595;DHT22;14238;49.496;8.154;2023-07-31T01:58:09;17.90;99.90
26595;DHT22;14238;49.496;8.154;2023-07-31T02:00:35;17.90;99.90
26595;DHT22;14238;49.496;8.154;2023-07-31T02:03:01;17.90;99.90
26595;DHT22;14238;49.496;8.154;2023-07-31T02:05:26;17.90;99.90
26595;DHT22;14238;49.496;8.154;2023-07-31T02:07:52;17.90;99.90
26595;DHT22;14238;49.496;8.154;2023-07-31T02:10:17;17.90;99.90
26595;DHT22;14238;49.496;8.154;2023-07-31T02:12:43;17.80;99.90
26595;DHT22;14238;49.496;8.154;2023-07-31T02:15:08;17.80;99.90
26595;DHT22;14238;49.496;8.154;2023-07-31T02:17:34;17.80;99.90
26595;DHT22;14238;49.496;8.154;2023-07-31T02:20:00;17.80;99.90
26595;DHT22;14238;49.496;8.154;2023-07-31T02:22:25;17.80;99.90
26595;DHT22;14238;49.496;8.154;2023-07-31T02:24:51;17.80;99.90
26595;DHT22;14238;49.496;8.154;2023-07-31T02:27:16;17.70;99.90
26595;DHT22;14238;49.496;8.154;2023-07-31T02:29:42;17.70;99.90
26595;DHT22;14238;49.496;8.154;2023-07-31T02:32:07;17.60;99.90
26595;DHT22;14238;49.496;8.154;2023-07-31T02:34:33;17.60;99.90
26595;DHT22;14238;49.496;8.154;2023-07-31T02:36:58;17.60;99.90
26595;DHT22;14238;49.496;8.154;2023-07-31T02:39:24;17.70;99.90
26595;DHT22;14238;49.496;8.154;2023-07-31T02:41:49;17.70;99.90
26595;DHT22;14238;49.496;8.154;2023-07-31T02:44:15;17.70;99.90
26595;DHT22;14238;49.496;8.154;2023-07-31T02:46:40;17.70;99.90
26595;DHT22;14238;49.496;8.154;2023-07-31T02:49:06;17.70;99.90
26595;DHT22;14238;49.496;8.154;2023-07-31T02:51:31;17.70;99.90
26595;DHT22;14238;49.496;8.154;2023-07-31T02:53:57;17.60;99.90
26595;DHT22;14238;49.496;8.154;2023-07-31T02:56:22;17.60;99.90
26595;DHT22;14238;49.496;8.154;2023-07-31T02:58:48;17.60;99.90
26595;DHT22;14238;49.496;8.154;2023-07-31T03:01:13;17.60;99.90
26595;DHT22;14238;49.496;8.154;2023-07-31T03:03:41;17.50;99.90
26595;DHT22;14238;49.496;8.154;2023-07-31T03:06:06;17.60;99.90
26595;DHT22;14238;49.496;8.154;2023-07-31T03:08:32;17.50;99.90
26595;DHT22;14238;49.496;8.154;2023-07-31T03:10:58;17.60;99.90
26595;DHT22;14238;49.496;8.154;2023-07-31T03:13:23;17.50;99.90
26595;DHT22;14238;49.496;8.154;2023-07-31T03:15:49;17.50;99.90
26595;DHT22;14238;49.496;8.154;2023-07-31T03:18:14;17.50;99.90
26595;DHT22;14238;49.496;8.154;2023-07-31T03:20:43;17.50;99.90
26595;DHT22;14238;49.496;8.154;2023-07-31T03:23:09;17.50;99.90
26595;DHT22;14238;49.496;8.154;2023-07-31T03:25:35;17.50;99.90
26595;DHT22;14238;49.496;8.154;2023-07-31T03:28:00;17.50;99.90
26595;DHT22;14238;49.496;8.154;2023-07-31T03:30:26;17.50;99.90
26595;DHT22;14238;49.496;8.154;2023-07-31T03:32:52;17.40;99.90
26595;DHT22;14238;49.496;8.154;2023-07-31T03:35:17;17.50;99.90
26595;DHT22;14238;49.496;8.154;2023-07-31T03:37:43;17.40;99.90
26595;DHT22;14238;49.496;8.154;2023-07-31T03:40:09;17.40;99.90
26595;DHT22;14238;49.496;8.154;2023-07-31T03:42:35;17.40;99.90
26595;DHT22;14238;49.496;8.154;2023-07-31T03:45:00;17.40;99.90
26595;DHT22;14238;49.496;8.154;2023-07-31T03:47:26;17.40;99.90
26595;DHT22;14238;49.496;8.154;2023-07-31T03:49:52;17.40;99.90
26595;DHT22;14238;49.496;8.154;2023-07-31T03:52:17;17.40;99.90
26595;DHT22;14238;49.496;8.154;2023-07-31T03:54:43;17.40;99.90
26595;DHT22;14238;49.496;8.154;2023-07-31T03:57:10;17.40;99.90
26595;DHT22;14238;49.496;8.154;2023-07-31T03:59:35;17.40;99.90
26595;DHT22;14238;49.496;8.154;2023-07-31T04:02:01;17.30;99.90
26595;DHT22;14238;49.496;8.154;2023-07-31T04:04:26;17.40;99.90
26595;DHT22;14238;49.496;8.154;2023-07-31T04:06:52;17.40;99.90
26595;DHT22;14238;49.496;8.154;2023-07-31T04:09:17;17.40;99.90
26595;DHT22;14238;49.496;8.154;2023-07-31T04:11:43;17.40;99.90
26595;DHT22;14238;49.496;8.154;2023-07-31T04:14:08;17.40;99.90
26595;DHT22;14238;49.496;8.154;2023-07-31T04:16:34;17.40;99.90
26595;DHT22;14238;49.496;8.154;2023-07-31T04:19:00;17.40;99.90
26595;DHT22;14238;49.496;8.154;2023-07-31T04:21:25;17.40;99.90
26595;DHT22;14238;49.496;8.154;2023-07-31T04:23:51;17.40;99.90
26595;DHT22;14238;49.496;8.154;2023-07-31T04:26:16;17.40;99.90
26595;DHT22;14238;49.496;8.154;2023-07-31T04:28:42;17.40;99.90
26595;DHT22;14238;49.496;8.154;2023-07-31T04:31:08;17.30;99.90
26595;DHT22;14238;49.496;8.154;2023-07-31T04:33:34;17.30;99.90
26595;DHT22;14238;49.496;8.154;2023-07-31T04:35:59;17.40;99.90
26595;DHT22;14238;49.496;8.154;2023-07-31T04:38:25;17.40;99.90
26595;DHT22;14238;49.496;8.154;2023-07-31T04:40:50;17.40;99.90
26595;DHT22;14238;49.496;8.154;2023-07-31T04:43:16;17.40;99.90
26595;DHT22;14238;49.496;8.154;2023-07-31T04:45:46;17.40;99.90
26595;DHT22;14238;49.496;8.154;2023-07-31T04:48:15;17.40;99.90
26595;DHT22;14238;49.496;8.154;2023-07-31T04:50:41;17.40;99.90
26595;DHT22;14238;49.496;8.154;2023-07-31T04:53:06;17.40;99.90
26595;DHT22;14238;49.496;8.154;2023-07-31T04:55:32;17.40;99.90
26595;DHT22;14238;49.496;8.154;2023-07-31T04:57:58;17.40;99.90
26595;DHT22;14238;49.496;8.154;2023-07-31T05:00:24;17.40;99.90
26595;DHT22;14238;49.496;8.154;2023-07-31T05:02:50;17.40;99.90
26595;DHT22;14238;49.496;8.154;2023-07-31T05:05:15;17.40;99.90
26595;DHT22;14238;49.496;8.154;2023-07-31T05:07:41;17.40;99.90
26595;DHT22;14238;49.496;8.154;2023-07-31T05:10:06;17.50;99.90
26595;DHT22;14238;49.496;8.154;2023-07-31T05:12:32;17.50;99.90
26595;DHT22;14238;49.496;8.154;2023-07-31T05:14:58;17.50;99.90
26595;DHT22;14238;49.496;8.154;2023-07-31T05:17:23;17.50;99.90
26595;DHT22;14238;49.496;8.154;2023-07-31T05:19:49;17.60;99.90
26595;DHT22;14238;49.496;8.154;2023-07-31T05:22:14;17.70;99.90
26595;DHT22;14238;49.496;8.154;2023-07-31T05:24:40;17.80;99.90
26595;DHT22;14238;49.496;8.154;2023-07-31T05:27:06;17.80;99.90
26595;DHT22;14238;49.496;8.154;2023-07-31T05:29:31;17.90;99.90
26595;DHT22;14238;49.496;8.154;2023-07-31T05:31:57;18.00;99.90
26595;DHT22;14238;49.496;8.154;2023-07-31T05:34:22;18.00;99.90
26595;DHT22;14238;49.496;8.154;2023-07-31T05:36:48;18.00;99.90
26595;DHT22;14238;49.496;8.154;2023-07-31T05:39:13;18.00;99.90
26595;DHT22;14238;49.496;8.154;2023-07-31T05:41:39;18.10;99.90
26595;DHT22;14238;49.496;8.154;2023-07-31T05:44:04;18.10;99.90
26595;DHT22;14238;49.496;8.154;2023-07-31T05:46:30;18.20;99.90
26595;DHT22;14238;49.496;8.154;2023-07-31T05:48:56;18.20;99.90
26595;DHT22;14238;49.496;8.154;2023-07-31T05:51:22;18.20;99.90
26595;DHT22;14238;49.496;8.154;2023-07-31T05:53:47;18.20;99.90
26595;DHT22;14238;49.496;8.154;2023-07-31T05:56:13;18.10;99.90
26595;DHT22;14238;49.496;8.154;2023-07-31T05:58:38;18.30;99.90
26595;DHT22;14238;49.496;8.154;2023-07-31T06:01:04;18.30;99.90
26595;DHT22;14238;49.496;8.154;2023-07-31T06:03:29;18.30;99.90
26595;DHT22;14238;49.496;8.154;2023-07-31T06:05:58;18.20;99.90
26595;DHT22;14238;49.496;8.154;2023-07-31T06:08:24;18.30;99.90
26595;DHT22;14238;49.496;8.154;2023-07-31T06:10:49;18.30;99.90
26595;DHT22;14238;49.496;8.154;2023-07-31T06:13:15;18.30;99.90
26595;DHT22;14238;49.496;8.154;2023-07-31T06:15:40;18.40;99.90
26595;DHT22;14238;49.496;8.154;2023-07-31T06:18:06;18.40;99.90
26595;DHT22;14238;49.496;8.154;2023-07-31T06:20:33;18.50;99.90
26595;DHT22;14238;49.496;8.154;2023-07-31T06:22:59;18.40;99.90
26595;DHT22;14238;49.496;8.154;2023-07-31T06:25:25;18.40;99.90
26595;DHT22;14238;49.496;8.154;2023-07-31T06:27:50;18.40;99.90
26595;DHT22;14238;49.496;8.154;2023-07-31T06:30:16;18.40;99.90
26595;DHT22;14238;49.496;8.154;2023-07-31T06:32:42;18.50;99.90
26595;DHT22;14238;49.496;8.154;2023-07-31T06:35:08;18.50;99.90
26595;DHT22;14238;49.496;8.154;2023-07-31T06:37:34;18.50;99.90
26595;DHT22;14238;49.496;8.154;2023-07-31T06:39:59;18.60;99.90
26595;DHT22;14238;49.496;8.154;2023-07-31T06:42:25;18.60;99.90
26595;DHT22;14238;49.496;8.154;2023-07-31T06:44:51;18.60;99.90
26595;DHT22;14238;49.496;8.154;2023-07-31T06:47:16;18.60;99.90
26595;DHT22;14238;49.496;8.154;2023-07-31T06:49:42;18.70;99.90
26595;DHT22;14238;49.496;8.154;2023-07-31T06:52:07;18.80;99.90
26595;DHT22;14238;49.496;8.154;2023-07-31T06:54:33;19.00;99.90
26595;DHT22;14238;49.496;8.154;2023-07-31T06:56:58;19.00;99.90
26595;DHT22;14238;49.496;8.154;2023-07-31T06:59:24;19.30;99.90
26595;DHT22;14238;49.496;8.154;2023-07-31T07:01:49;19.50;99.90
26595;DHT22;14238;49.496;8.154;2023-07-31T07:04:15;19.70;99.90
26595;DHT22;14238;49.496;8.154;2023-07-31T07:06:41;19.80;99.90
26595;DHT22;14238;49.496;8.154;2023-07-31T07:09:07;19.70;99.90
26595;DHT22;14238;49.496;8.154;2023-07-31T07:11:33;19.70;99.90
26595;DHT22;14238;49.496;8.154;2023-07-31T07:13:59;19.50;99.90
26595;DHT22;14238;49.496;8.154;2023-07-31T07:16:28;19.50;99.90
26595;DHT22;14238;49.496;8.154;2023-07-31T07:18:54;19.60;99.90
26595;DHT22;14238;49.496;8.154;2023-07-31T07:21:19;19.70;99.90
26595;DHT22;14238;49.496;8.154;2023-07-31T07:23:45;19.90;99.90
26595;DHT22;14238;49.496;8.154;2023-07-31T07:26:11;20.10;99.90
26595;DHT22;14238;49.496;8.154;2023-07-31T07:28:36;20.40;99.90
26595;DHT22;14238;49.496;8.154;2023-07-31T07:31:02;20.40;99.90
26595;DHT22;14238;49.496;8.154;2023-07-31T07:33:28;20.40;99.90
26595;DHT22;14238;49.496;8.154;2023-07-31T07:35:54;20.40;99.90
26595;DHT22;14238;49.496;8.154;2023-07-31T07:38:19;20.70;99.90
26595;DHT22;14238;49.496;8.154;2023-07-31T07:40:45;20.60;99.90
26595;DHT22;14238;49.496;8.154;2023-07-31T07:43:12;20.50;99.90
26595;DHT22;14238;49.496;8.154;2023-07-31T07:45:37;20.50;99.90
26595;DHT22;14238;49.496;8.154;2023-07-31T07:48:03;20.70;99.90
26595;DHT22;14238;49.496;8.154;2023-07-31T07:50:28;20.70;99.90
26595;DHT22;14238;49.496;8.154;2023-07-31T07:52:54;20.10;99.90
26595;DHT22;14238;49.496;8.154;2023-07-31T07:55:20;20.10;99.90
26595;DHT22;14238;49.496;8.154;2023-07-31T07:57:45;20.20;99.90
26595;DHT22;14238;49.496;8.154;2023-07-31T08:00:13;20.30;99.90
26595;DHT22;14238;49.496;8.154;2023-07-31T08:02:38;20.40;99.90
26595;DHT22;14238;49.496;8.154;2023-07-31T08:05:04;20.70;99.90
26595;DHT22;14238;49.496;8.154;2023-07-31T08:07:30;21.00;99.90
26595;DHT22;14238;49.496;8.154;2023-07-31T08:09:55;21.30;99.90
26595;DHT22;14238;49.496;8.154;2023-07-31T08:12:21;21.50;99.90
26595;DHT22;14238;49.496;8.154;2023-07-31T08:14:46;21.20;99.90
26595;DHT22;14238;49.496;8.154;2023-07-31T08:17:12;21.00;99.90
26595;DHT22;14238;49.496;8.154;2023-07-31T08:19:37;20.90;99.90
26595;DHT22;14238;49.496;8.154;2023-07-31T08:22:03;21.00;99.90
26595;DHT22;14238;49.496;8.154;2023-07-31T08:24:29;20.80;99.90
26595;DHT22;14238;49.496;8.154;2023-07-31T08:26:54;20.80;99.90
26595;DHT22;14238;49.496;8.154;2023-07-31T08:29:20;20.90;99.90
26595;DHT22;14238;49.496;8.154;2023-07-31T08:31:45;20.90;99.90
26595;DHT22;14238;49.496;8.154;2023-07-31T08:34:11;21.00;99.90
26595;DHT22;14238;49.496;8.154;2023-07-31T08:36:36;20.90;99.90
26595;DHT22;14238;49.496;8.154;2023-07-31T08:39:02;21.10;99.90
26595;DHT22;14238;49.496;8.154;2023-07-31T08:41:29;21.50;99.90
26595;DHT22;14238;49.496;8.154;2023-07-31T08:43:55;21.60;99.90
26595;DHT22;14238;49.496;8.154;2023-07-31T08:46:22;21.40;99.90
26595;DHT22;14238;49.496;8.154;2023-07-31T08:48:47;21.50;99.90
26595;DHT22;14238;49.496;8.154;2023-07-31T08:51:14;21.60;99.90
26595;DHT22;14238;49.496;8.154;2023-07-31T08:53:40;21.70;99.90
26595;DHT22;14238;49.496;8.154;2023-07-31T08:56:06;21.80;99.90
26595;DHT22;14238;49.496;8.154;2023-07-31T08:58:32;21.70;99.90
26595;DHT22;14238;49.496;8.154;2023-07-31T09:01:03;21.60;99.90
26595;DHT22;14238;49.496;8.154;2023-07-31T09:03:33;21.60;99.90
26595;DHT22;14238;49.496;8.154;2023-07-31T09:05:59;21.30;99.90
26595;DHT22;14238;49.496;8.154;2023-07-31T09:08:26;21.50;99.90
26595;DHT22;14238;49.496;8.154;2023-07-31T09:10:53;21.90;99.90
26595;DHT22;14238;49.496;8.154;2023-07-31T09:13:20;22.10;99.90
26595;DHT22;14238;49.496;8.154;2023-07-31T09:15:46;21.80;99.90
26595;DHT22;14238;49.496;8.154;2023-07-31T09:18:12;22.10;99.90
26595;DHT22;14238;49.496;8.154;2023-07-31T09:20:39;22.80;99.90
26595;DHT22;14238;49.496;8.154;2023-07-31T09:23:06;22.90;99.90
26595;DHT22;14238;49.496;8.154;2023-07-31T09:25:32;23.00;99.90
26595;DHT22;14238;49.496;8.154;2023-07-31T09:28:06;22.20;99.90
26595;DHT22;14238;49.496;8.154;2023-07-31T09:30:48;22.30;99.90
26595;DHT22;14238;49.496;8.154;2023-07-31T09:33:14;22.10;99.90
26595;DHT22;14238;49.496;8.154;2023-07-31T09:35:40;22.00;99.90
26595;DHT22;14238;49.496;8.154;2023-07-31T09:38:13;22.00;99.90
26595;DHT22;14238;49.496;8.154;2023-07-31T09:40:40;22.20;99.90
26595;DHT22;14238;49.496;8.154;2023-07-31T09:43:11;22.40;99.90
26595;DHT22;14238;49.496;8.154;2023-07-31T09:45:44;22.80;99.90
26595;DHT22;14238;49.496;8.154;2023-07-31T09:48:12;22.90;99.90
26595;DHT22;14238;49.496;8.154;2023-07-31T09:50:39;23.10;99.90
26595;DHT22;14238;49.496;8.154;2023-07-31T09:53:06;22.50;99.90
26595;DHT22;14238;49.496;8.154;2023-07-31T09:55:32;22.00;99.90
26595;DHT22;14238;49.496;8.154;2023-07-31T09:57:58;21.90;99.90
26595;DHT22;14238;49.496;8.154;2023-07-31T10:00:25;21.90;99.90
26595;DHT22;14238;49.496;8.154;2023-07-31T10:02:54;21.60;99.90
26595;DHT22;14238;49.496;8.154;2023-07-31T10:05:21;21.60;99.90
26595;DHT22;14238;49.496;8.154;2023-07-31T10:07:57;21.50;99.90
26595;DHT22;14238;49.496;8.154;2023-07-31T10:10:23;21.50;99.90
26595;DHT22;14238;49.496;8.154;2023-07-31T10:12:52;21.60;99.90
26595;DHT22;14238;49.496;8.154;2023-07-31T10:15:18;21.80;99.90
26595;DHT22;14238;49.496;8.154;2023-07-31T10:17:44;21.80;99.90
26595;DHT22;14238;49.496;8.154;2023-07-31T10:20:11;21.90;99.90
26595;DHT22;14238;49.496;8.154;2023-07-31T10:22:38;22.10;99.90
26595;DHT22;14238;49.496;8.154;2023-07-31T10:25:04;21.90;99.90
26595;DHT22;14238;49.496;8.154;2023-07-31T10:27:43;21.80;99.90
26595;DHT22;14238;49.496;8.154;2023-07-31T10:30:16;21.90;99.90
26595;DHT22;14238;49.496;8.154;2023-07-31T10:32:44;22.00;99.90
26595;DHT22;14238;49.496;8.154;2023-07-31T10:35:11;22.30;99.90
26595;DHT22;14238;49.496;8.154;2023-07-31T10:37:42;22.60;99.90
26595;DHT22;14238;49.496;8.154;2023-07-31T10:40:19;22.60;99.90
26595;DHT22;14238;49.496;8.154;2023-07-31T10:45:14;22.80;99.90
26595;DHT22;14238;49.496;8.154;2023-07-31T10:47:48;22.70;99.90
26595;DHT22;14238;49.496;8.154;2023-07-31T10:50:21;23.30;99.90
26595;DHT22;14238;49.496;8.154;2023-07-31T10:52:51;23.40;99.90
26595;DHT22;14238;49.496;8.154;2023-07-31T10:55:28;23.50;99.90
26595;DHT22;14238;49.496;8.154;2023-07-31T10:57:56;23.10;99.90
26595;DHT22;14238;49.496;8.154;2023-07-31T11:03:07;23.40;99.90
26595;DHT22;14238;49.496;8.154;2023-07-31T11:05:53;23.30;99.90
26595;DHT22;14238;49.496;8.154;2023-07-31T11:08:24;22.70;99.90
26595;DHT22;14238;49.496;8.154;2023-07-31T11:11:05;22.40;99.90
26595;DHT22;14238;49.496;8.154;2023-07-31T11:13:33;22.80;99.90
26595;DHT22;14238;49.496;8.154;2023-07-31T11:16:00;22.90;99.90
26595;DHT22;14238;49.496;8.154;2023-07-31T11:18:26;22.80;99.90
26595;DHT22;14238;49.496;8.154;2023-07-31T11:20:52;22.70;99.90
26595;DHT22;14238;49.496;8.154;2023-07-31T11:23:19;22.80;99.90
26595;DHT22;14238;49.496;8.154;2023-07-31T11:25:46;22.80;99.90
26595;DHT22;14238;49.496;8.154;2023-07-31T11:28:13;22.60;99.90
26595;DHT22;14238;49.496;8.154;2023-07-31T11:30:40;22.50;99.90
26595;DHT22;14238;49.496;8.154;2023-07-31T11:33:07;22.70;99.90
26595;DHT22;14238;49.496;8.154;2023-07-31T11:35:43;22.70;99.90
26595;DHT22;14238;49.496;8.154;2023-07-31T11:38:11;22.60;99.90
26595;DHT22;14238;49.496;8.154;2023-07-31T11:40:43;23.00;99.90
26595;DHT22;14238;49.496;8.154;2023-07-31T11:43:10;22.80;99.90
26595;DHT22;14238;49.496;8.154;2023-07-31T11:45:37;22.50;99.90
26595;DHT22;14238;49.496;8.154;2023-07-31T11:48:03;22.60;99.90
26595;DHT22;14238;49.496;8.154;2023-07-31T11:50:33;22.80;99.90
26595;DHT22;14238;49.496;8.154;2023-07-31T11:53:03;22.80;99.90
26595;DHT22;14238;49.496;8.154;2023-07-31T11:55:31;22.60;99.90
26595;DHT22;14238;49.496;8.154;2023-07-31T11:57:58;22.70;99.90
26595;DHT22;14238;49.496;8.154;2023-07-31T12:00:25;23.10;99.90
26595;DHT22;14238;49.496;8.154;2023-07-31T12:02:51;23.40;99.90
26595;DHT22;14238;49.496;8.154;2023-07-31T12:05:18;23.60;99.90
26595;DHT22;14238;49.496;8.154;2023-07-31T12:07:54;24.10;99.90
26595;DHT22;14238;49.496;8.154;2023-07-31T12:12:56;23.90;99.90
26595;DHT22;14238;49.496;8.154;2023-07-31T12:15:38;23.50;99.90
26595;DHT22;14238;49.496;8.154;2023-07-31T12:18:12;23.40;99.90
26595;DHT22;14238;49.496;8.154;2023-07-31T12:20:46;23.10;99.90
26595;DHT22;14238;49.496;8.154;2023-07-31T12:23:17;23.20;99.90
26595;DHT22;14238;49.496;8.154;2023-07-31T12:25:42;23.10;99.90
26595;DHT22;14238;49.496;8.154;2023-07-31T12:28:08;23.60;99.90
26595;DHT22;14238;49.496;8.154;2023-07-31T12:30:38;24.40;99.90
26595;DHT22;14238;49.496;8.154;2023-07-31T12:33:14;24.60;99.90
26595;DHT22;14238;49.496;8.154;2023-07-31T12:35:46;24.40;99.90
26595;DHT22;14238;49.496;8.154;2023-07-31T12:38:13;24.70;99.90
26595;DHT22;14238;49.496;8.154;2023-07-31T12:40:40;24.60;99.90
26595;DHT22;14238;49.496;8.154;2023-07-31T12:43:07;24.80;99.90
26595;DHT22;14238;49.496;8.154;2023-07-31T12:45:33;24.80;99.90
26595;DHT22;14238;49.496;8.154;2023-07-31T12:47:59;25.20;99.90
26595;DHT22;14238;49.496;8.154;2023-07-31T12:50:25;24.80;99.90
26595;DHT22;14238;49.496;8.154;2023-07-31T12:52:53;24.80;99.90
26595;DHT22;14238;49.496;8.154;2023-07-31T12:55:18;24.60;99.90
26595;DHT22;14238;49.496;8.154;2023-07-31T12:57:44;24.30;99.90
26595;DHT22;14238;49.496;8.154;2023-07-31T13:00:10;24.00;99.90
26595;DHT22;14238;49.496;8.154;2023-07-31T13:02:36;24.10;99.90
26595;DHT22;14238;49.496;8.154;2023-07-31T13:05:02;23.80;99.90
26595;DHT22;14238;49.496;8.154;2023-07-31T13:07:27;23.70;99.90
26595;DHT22;14238;49.496;8.154;2023-07-31T13:09:53;23.50;99.90
26595;DHT22;14238;49.496;8.154;2023-07-31T13:12:18;23.60;99.90
26595;DHT22;14238;49.496;8.154;2023-07-31T13:14:44;24.00;99.90
26595;DHT22;14238;49.496;8.154;2023-07-31T13:17:10;24.00;99.90
26595;DHT22;14238;49.496;8.154;2023-07-31T13:19:35;24.30;99.90
26595;DHT22;14238;49.496;8.154;2023-07-31T13:22:01;24.20;99.90
26595;DHT22;14238;49.496;8.154;2023-07-31T13:24:26;24.10;99.90
26595;DHT22;14238;49.496;8.154;2023-07-31T13:26:52;23.90;99.90
26595;DHT22;14238;49.496;8.154;2023-07-31T13:29:17;23.70;99.90
26595;DHT22;14238;49.496;8.154;2023-07-31T13:31:43;23.60;99.90
26595;DHT22;14238;49.496;8.154;2023-07-31T13:34:08;23.60;99.90
26595;DHT22;14238;49.496;8.154;2023-07-31T13:36:34;23.60;99.90
26595;DHT22;14238;49.496;8.154;2023-07-31T13:39:00;23.50;99.90
26595;DHT22;14238;49.496;8.154;2023-07-31T13:41:26;23.80;99.90
26595;DHT22;14238;49.496;8.154;2023-07-31T13:43:51;24.10;99.90
26595;DHT22;14238;49.496;8.154;2023-07-31T13:46:17;24.10;99.90
26595;DHT22;14238;49.496;8.154;2023-07-31T13:48:43;24.00;99.90
26595;DHT22;14238;49.496;8.154;2023-07-31T13:51:08;23.80;99.90
26595;DHT22;14238;49.496;8.154;2023-07-31T13:53:34;23.50;99.90
26595;DHT22;14238;49.496;8.154;2023-07-31T13:55:59;23.30;99.90
26595;DHT22;14238;49.496;8.154;2023-07-31T13:58:25;23.40;99.90
26595;DHT22;14238;49.496;8.154;2023-07-31T14:00:51;23.60;99.90
26595;DHT22;14238;49.496;8.154;2023-07-31T14:03:16;23.60;99.90
26595;DHT22;14238;49.496;8.154;2023-07-31T14:05:42;23.40;99.90
26595;DHT22;14238;49.496;8.154;2023-07-31T14:08:07;23.00;99.90
26595;DHT22;14238;49.496;8.154;2023-07-31T14:10:33;22.70;99.90
26595;DHT22;14238;49.496;8.154;2023-07-31T14:12:58;22.80;99.90
26595;DHT22;14238;49.496;8.154;2023-07-31T14:15:24;22.50;99.90
26595;DHT22;14238;49.496;8.154;2023-07-31T14:17:49;22.60;99.90
26595;DHT22;14238;49.496;8.154;2023-07-31T14:20:15;22.60;99.90
26595;DHT22;14238;49.496;8.154;2023-07-31T14:22:41;22.70;99.90
26595;DHT22;14238;49.496;8.154;2023-07-31T14:25:06;22.90;99.90
26595;DHT22;14238;49.496;8.154;2023-07-31T14:27:33;22.60;99.90
26595;DHT22;14238;49.496;8.154;2023-07-31T14:29:58;22.40;99.90
26595;DHT22;14238;49.496;8.154;2023-07-31T14:32:24;22.40;99.90
26595;DHT22;14238;49.496;8.154;2023-07-31T14:34:51;22.30;99.90
26595;DHT22;14238;49.496;8.154;2023-07-31T14:37:16;22.30;99.90
26595;DHT22;14238;49.496;8.154;2023-07-31T14:39:42;22.50;99.90
26595;DHT22;14238;49.496;8.154;2023-07-31T14:42:08;22.70;99.90
26595;DHT22;14238;49.496;8.154;2023-07-31T14:44:34;23.00;99.90
26595;DHT22;14238;49.496;8.154;2023-07-31T14:46:59;23.00;99.90
26595;DHT22;14238;49.496;8.154;2023-07-31T14:49:25;23.20;99.90
26595;DHT22;14238;49.496;8.154;2023-07-31T14:51:52;23.30;99.90
26595;DHT22;14238;49.496;8.154;2023-07-31T14:54:18;23.30;99.90
26595;DHT22;14238;49.496;8.154;2023-07-31T14:56:43;23.20;99.90
26595;DHT22;14238;49.496;8.154;2023-07-31T14:59:09;23.20;99.90
26595;DHT22;14238;49.496;8.154;2023-07-31T15:01:35;23.20;99.90
26595;DHT22;14238;49.496;8.154;2023-07-31T15:04:00;23.20;99.90
26595;DHT22;14238;49.496;8.154;2023-07-31T15:06:26;23.00;99.90
26595;DHT22;14238;49.496;8.154;2023-07-31T15:08:51;23.00;99.90
26595;DHT22;14238;49.496;8.154;2023-07-31T15:11:17;23.00;99.90
26595;DHT22;14238;49.496;8.154;2023-07-31T15:13:43;22.80;99.90
26595;DHT22;14238;49.496;8.154;2023-07-31T15:16:09;22.80;99.90
26595;DHT22;14238;49.496;8.154;2023-07-31T15:18:34;22.60;99.90
26595;DHT22;14238;49.496;8.154;2023-07-31T15:21:00;22.50;99.90
26595;DHT22;14238;49.496;8.154;2023-07-31T15:23:25;22.50;99.90
26595;DHT22;14238;49.496;8.154;2023-07-31T15:25:51;22.40;99.90
26595;DHT22;14238;49.496;8.154;2023-07-31T15:28:18;22.50;99.90
26595;DHT22;14238;49.496;8.154;2023-07-31T15:30:44;22.50;99.90
26595;DHT22;14238;49.496;8.154;2023-07-31T15:33:10;22.60;99.90
26595;DHT22;14238;49.496;8.154;2023-07-31T15:35:36;22.50;99.90
26595;DHT22;14238;49.496;8.154;2023-07-31T15:38:01;22.50;99.90